Time;durP1;ratioP1;P1;durP2;ratioP2;P2;SDS_P1;SDS_P2;PMS_P1;PMS_P2;Temp;Humidity;BMP_temperature;BMP_pressure;BME280_temperature;BME280_humidity;BME280_pressure;Samples;Min_cycle;Max_cycle;Signal;HPM_P1;HPM_P2
2023/06/03 00:00:08;;;;;;;0.60;0.60;;;12.70;99.50;;;;;;5113911;28;20048;-69
2023/06/03 00:02:34;;;;;;;0.50;0.50;;;12.70;99.90;;;;;;5114114;28;20055;-69
2023/06/03 00:05:01;;;;;;;0.40;0.40;;;12.60;99.60;;;;;;5113858;28;20056;-69
2023/06/03 00:07:27;;;;;;;0.50;0.50;;;12.60;99.90;;;;;;5114210;28;20087;-70
2023/06/03 00:09:53;;;;;;;0.60;0.60;;;12.60;99.30;;;;;;5113888;28;20047;-69
2023/06/03 00:12:19;;;;;;;0.60;0.60;;;12.50;99.80;;;;;;5114088;28;20050;-69
2023/06/03 00:14:46;;;;;;;0.60;0.60;;;13.40;99.90;;;;;;5113867;28;20042;-70
2023/06/03 00:17:11;;;;;;;0.60;0.60;;;12.40;99.60;;;;;;5113763;28;20042;-69
2023/06/03 00:19:40;;;;;;;0.50;0.50;;;12.40;99.00;;;;;;5113392;28;20031;-69
2023/06/03 00:22:06;;;;;;;0.47;0.47;;;12.30;99.90;;;;;;5114128;28;20040;-70
2023/06/03 00:24:32;;;;;;;0.50;0.50;;;12.30;99.40;;;;;;5113737;28;20035;-70
2023/06/03 00:26:58;;;;;;;0.60;0.60;;;12.30;99.70;;;;;;5113615;28;20459;-70
2023/06/03 00:29:25;;;;;;;0.60;0.60;;;12.20;99.90;;;;;;5113653;28;20047;-70
2023/06/03 00:31:51;;;;;;;0.43;0.43;;;12.40;99.30;;;;;;5113748;28;20118;-69
2023/06/03 00:34:17;;;;;;;0.60;0.60;;;12.20;99.90;;;;;;5113596;28;20499;-70
2023/06/03 00:36:43;;;;;;;0.50;0.50;;;12.10;99.40;;;;;;5113587;28;20031;-70
2023/06/03 00:39:10;;;;;;;0.40;0.40;;;12.10;99.40;;;;;;5113633;28;20061;-69
2023/06/03 00:41:35;;;;;;;0.50;0.50;;;12.20;99.10;;;;;;5113521;28;20605;-69
2023/06/03 00:44:01;;;;;;;0.50;0.50;;;12.00;99.80;;;;;;5113601;28;20109;-69
2023/06/03 00:46:27;;;;;;;0.50;0.50;;;12.00;99.70;;;;;;5113447;28;20463;-69
2023/06/03 00:48:53;;;;;;;0.60;0.60;;;12.20;99.90;;;;;;5115303;28;20119;-69
2023/06/03 00:51:19;;;;;;;0.60;0.60;;;11.90;99.60;;;;;;5117214;28;20102;-69
2023/06/03 00:53:45;;;;;;;0.50;0.50;;;11.80;99.60;;;;;;5117577;28;20047;-69
2023/06/03 00:56:12;;;;;;;0.60;0.60;;;11.80;99.90;;;;;;5117173;28;20079;-69
2023/06/03 00:58:38;;;;;;;0.60;0.60;;;11.80;99.60;;;;;;5116940;27;20040;-69
2023/06/03 01:01:05;;;;;;;0.60;0.60;;;11.60;99.90;;;;;;5117186;28;20035;-70
2023/06/03 01:03:31;;;;;;;0.50;0.50;;;11.70;99.80;;;;;;5116952;28;20101;-69
2023/06/03 01:06:45;;;;;;;0.50;0.50;;;11.60;99.70;;;;;;5116228;28;20459;-69
2023/06/03 01:09:18;;;;;;;0.73;0.73;;;11.60;99.90;;;;;;5053789;28;20481;-69
2023/06/03 01:12:13;;;;;;;0.60;0.60;;;11.60;99.70;;;;;;5106734;28;20048;-69
2023/06/03 01:14:45;;;;;;;0.50;0.50;;;11.60;99.90;;;;;;5117062;28;20092;-69
2023/06/03 01:17:12;;;;;;;0.50;0.50;;;11.50;99.90;;;;;;5116626;28;20490;-69
2023/06/03 01:19:48;;;;;;;0.45;0.45;;;11.50;99.80;;;;;;5116646;27;20044;-69
2023/06/03 01:22:20;;;;;;;0.60;0.60;;;11.50;99.80;;;;;;5116703;28;20058;-69
2023/06/03 01:24:48;;;;;;;0.60;0.60;;;11.50;99.90;;;;;;5116901;28;20040;-69
2023/06/03 01:27:13;;;;;;;0.60;0.60;;;11.40;99.90;;;;;;5116413;28;20036;-68
2023/06/03 01:29:44;;;;;;;1.10;1.05;;;11.30;99.90;;;;;;5116682;28;20037;-69
2023/06/03 01:32:17;;;;;;;0.60;0.60;;;11.30;99.90;;;;;;5116326;28;20345;-69
2023/06/03 01:34:43;;;;;;;0.70;0.70;;;11.20;99.90;;;;;;5116393;28;20039;-69
2023/06/03 01:37:10;;;;;;;0.73;0.73;;;11.20;99.90;;;;;;5116295;28;20039;-69
2023/06/03 01:39:40;;;;;;;0.60;0.60;;;11.50;99.90;;;;;;5116326;28;20048;-70
2023/06/03 01:42:10;;;;;;;1.02;1.02;;;11.70;99.90;;;;;;5116310;28;20080;-69
2023/06/03 01:44:36;;;;;;;0.65;0.65;;;11.10;99.90;;;;;;5116345;28;20032;-69
2023/06/03 01:47:03;;;;;;;0.70;0.70;;;11.00;99.90;;;;;;5116184;28;20035;-69
2023/06/03 01:49:31;;;;;;;0.60;0.60;;;11.00;99.90;;;;;;5116079;28;20070;-69
2023/06/03 01:51:58;;;;;;;0.60;0.60;;;10.90;99.90;;;;;;5116072;27;20467;-70
2023/06/03 01:54:25;;;;;;;0.70;0.70;;;10.90;99.90;;;;;;5116461;28;20040;-69
2023/06/03 01:56:52;;;;;;;0.70;0.70;;;10.90;99.90;;;;;;5115985;28;20044;-69
2023/06/03 01:59:23;;;;;;;0.68;0.68;;;10.80;99.90;;;;;;5115366;28;20089;-69
2023/06/03 02:01:55;;;;;;;0.50;0.50;;;10.80;99.90;;;;;;5115443;28;20047;-70
2023/06/03 02:04:21;;;;;;;0.60;0.60;;;10.70;99.90;;;;;;5115777;28;20352;-70
2023/06/03 02:06:52;;;;;;;0.50;0.50;;;11.30;99.90;;;;;;5115707;28;20044;-69
2023/06/03 02:09:20;;;;;;;0.93;0.93;;;10.50;99.90;;;;;;5116035;28;20435;-69
2023/06/03 02:11:47;;;;;;;0.60;0.60;;;10.60;99.90;;;;;;5115660;28;20071;-69
2023/06/03 02:14:16;;;;;;;0.50;0.50;;;11.00;99.90;;;;;;5115715;28;20379;-70
2023/06/03 02:16:41;;;;;;;0.63;0.63;;;10.50;99.90;;;;;;5115569;28;20062;-69
2023/06/03 02:19:15;;;;;;;0.50;0.50;;;10.70;99.90;;;;;;5115547;28;20447;-69
2023/06/03 02:21:42;;;;;;;0.60;0.60;;;10.50;99.90;;;;;;5115592;28;20050;-69
2023/06/03 02:24:08;;;;;;;2.63;2.05;;;10.50;99.90;;;;;;5115390;28;20047;-70
2023/06/03 02:26:35;;;;;;;0.60;0.60;;;10.40;99.90;;;;;;5115292;28;20482;-69
2023/06/03 02:29:01;;;;;;;0.60;0.60;;;10.40;99.90;;;;;;5115383;28;20330;-69
2023/06/03 02:31:27;;;;;;;0.60;0.60;;;10.50;99.90;;;;;;5115242;28;20417;-69
2023/06/03 02:33:52;;;;;;;0.50;0.50;;;10.30;99.90;;;;;;5115704;28;20080;-69
2023/06/03 02:36:18;;;;;;;0.50;0.50;;;10.30;99.90;;;;;;5115536;28;20086;-69
2023/06/03 02:38:44;;;;;;;0.60;0.60;;;10.20;99.90;;;;;;5115156;28;20031;-69
2023/06/03 02:41:10;;;;;;;0.60;0.60;;;10.60;99.90;;;;;;5115296;28;20082;-68
2023/06/03 02:43:36;;;;;;;0.60;0.60;;;10.20;99.90;;;;;;5114807;28;20075;-70
2023/06/03 02:46:02;;;;;;;0.55;0.55;;;10.20;99.90;;;;;;5114829;28;20047;-69
2023/06/03 02:48:27;;;;;;;0.70;0.70;;;10.20;99.90;;;;;;5114908;28;20547;-69
2023/06/03 02:50:53;;;;;;;0.50;0.50;;;10.10;99.90;;;;;;5115020;28;20036;-69
2023/06/03 02:53:18;;;;;;;0.60;0.60;;;10.10;99.90;;;;;;5114859;28;20032;-68
2023/06/03 02:55:45;;;;;;;0.50;0.50;;;10.00;99.90;;;;;;5114780;28;20520;-69
2023/06/03 02:58:15;;;;;;;0.50;0.50;;;10.20;99.90;;;;;;5114748;28;20353;-69
2023/06/03 03:00:41;;;;;;;0.50;0.50;;;10.00;99.90;;;;;;5114567;28;20043;-68
2023/06/03 03:03:06;;;;;;;0.60;0.60;;;9.90;99.90;;;;;;5115269;28;20047;-68
2023/06/03 03:05:32;;;;;;;0.60;0.60;;;9.80;99.90;;;;;;5114568;28;20527;-69
2023/06/03 03:07:58;;;;;;;0.50;0.50;;;10.40;99.90;;;;;;5114319;28;20043;-68
2023/06/03 03:10:25;;;;;;;0.50;0.50;;;9.80;99.90;;;;;;5114470;28;20084;-68
2023/06/03 03:12:51;;;;;;;2.55;1.85;;;9.80;99.90;;;;;;5114153;28;20282;-68
2023/06/03 03:15:16;;;;;;;0.47;0.47;;;9.80;99.90;;;;;;5114055;28;20035;-69
2023/06/03 03:17:42;;;;;;;0.50;0.50;;;9.70;99.90;;;;;;5114085;28;20047;-68
2023/06/03 03:20:08;;;;;;;0.50;0.50;;;9.70;99.90;;;;;;5114333;28;20122;-68
2023/06/03 03:22:34;;;;;;;0.40;0.40;;;9.60;99.90;;;;;;5114325;28;20549;-68
2023/06/03 03:25:00;;;;;;;0.50;0.50;;;9.60;99.90;;;;;;5114334;28;20131;-68
2023/06/03 03:27:26;;;;;;;0.50;0.50;;;9.60;99.90;;;;;;5114495;28;20122;-69
2023/06/03 03:29:54;;;;;;;0.50;0.50;;;9.80;99.90;;;;;;5114207;28;20070;-68
2023/06/03 03:32:20;;;;;;;0.40;0.40;;;9.50;99.90;;;;;;5114659;28;20044;-68
2023/06/03 03:35:04;;;;;;;0.47;0.47;;;9.50;99.90;;;;;;5114242;28;20031;-68
2023/06/03 03:37:30;;;;;;;0.50;0.50;;;9.40;99.90;;;;;;5114215;28;20035;-68
2023/06/03 03:39:55;;;;;;;0.50;0.50;;;9.40;99.90;;;;;;5114085;28;20050;-68
2023/06/03 03:42:21;;;;;;;0.40;0.40;;;9.40;99.90;;;;;;5114141;28;20040;-68
2023/06/03 03:44:47;;;;;;;0.40;0.40;;;9.40;99.90;;;;;;5114052;28;20044;-69
2023/06/03 03:47:19;;;;;;;0.45;0.45;;;9.40;99.90;;;;;;5114066;28;20130;-69
2023/06/03 03:49:45;;;;;;;0.40;0.40;;;9.40;99.90;;;;;;5114073;28;20100;-68
2023/06/03 03:52:13;;;;;;;0.40;0.40;;;9.40;99.90;;;;;;5113977;28;20036;-68
2023/06/03 03:54:38;;;;;;;0.40;0.40;;;9.40;99.90;;;;;;5114020;28;20451;-69
2023/06/03 03:57:12;;;;;;;0.43;0.43;;;9.70;99.90;;;;;;5113838;28;20075;-68
2023/06/03 03:59:37;;;;;;;0.40;0.40;;;9.50;99.90;;;;;;5113994;28;20043;-68
2023/06/03 04:02:03;;;;;;;0.75;0.75;;;9.60;99.90;;;;;;5113756;28;20045;-68
2023/06/03 04:04:49;;;;;;;0.50;0.50;;;9.60;99.90;;;;;;5113883;28;20057;-69
2023/06/03 04:07:20;;;;;;;0.47;0.47;;;9.60;99.90;;;;;;5113489;28;20138;-69
2023/06/03 04:09:47;;;;;;;0.40;0.40;;;9.50;99.90;;;;;;5113832;28;20050;-68
2023/06/03 04:12:32;;;;;;;0.50;0.50;;;9.50;99.90;;;;;;5113862;28;20035;-69
2023/06/03 04:14:57;;;;;;;0.45;0.45;;;9.50;99.90;;;;;;5113784;28;20377;-68
2023/06/03 04:17:25;;;;;;;0.50;0.50;;;9.50;99.90;;;;;;5113742;28;20043;-69
2023/06/03 04:19:52;;;;;;;0.40;0.40;;;9.50;99.90;;;;;;5113868;28;20051;-69
2023/06/03 04:22:21;;;;;;;0.50;0.50;;;9.50;99.90;;;;;;5113738;28;20058;-69
2023/06/03 04:24:56;;;;;;;0.40;0.40;;;9.50;99.90;;;;;;5118094;28;20475;-68
2023/06/03 04:27:22;;;;;;;0.85;0.85;;;9.70;99.90;;;;;;5117631;28;20036;-68
2023/06/03 04:29:48;;;;;;;0.50;0.50;;;9.60;99.90;;;;;;5117673;28;20344;-69
2023/06/03 04:32:13;;;;;;;0.50;0.50;;;9.60;99.90;;;;;;5117622;28;20065;-68
2023/06/03 04:34:53;;;;;;;0.47;0.47;;;9.60;99.90;;;;;;5117523;28;20055;-68
2023/06/03 04:37:20;;;;;;;0.40;0.40;;;9.60;99.90;;;;;;5117576;28;20110;-69
2023/06/03 04:39:46;;;;;;;0.50;0.50;;;9.70;99.90;;;;;;5117792;27;20089;-69
2023/06/03 04:42:12;;;;;;;0.50;0.50;;;10.00;99.90;;;;;;5117446;28;20048;-69
2023/06/03 04:44:39;;;;;;;0.50;0.50;;;10.40;99.90;;;;;;5117581;28;20127;-69
2023/06/03 04:47:09;;;;;;;;;;;10.50;99.90;;;;;;5117644;27;20035;-70
2023/06/03 04:49:35;;;;;;;0.50;0.50;;;10.40;99.90;;;;;;5117834;27;19915;-69
2023/06/03 04:52:01;;;;;;;0.50;0.50;;;10.30;99.90;;;;;;5117773;28;20035;-69
2023/06/03 04:54:26;;;;;;;3.20;0.70;;;10.30;99.90;;;;;;5117565;27;20039;-69
2023/06/03 04:56:52;;;;;;;0.50;0.50;;;11.30;99.90;;;;;;5117027;28;20039;-69
2023/06/03 04:59:18;;;;;;;0.50;0.50;;;10.30;99.90;;;;;;5117137;28;20075;-69
2023/06/03 05:01:44;;;;;;;0.52;0.52;;;10.30;99.90;;;;;;5117082;28;20352;-69
2023/06/03 05:04:11;;;;;;;0.50;0.50;;;10.30;99.90;;;;;;5117504;28;20070;-69
2023/06/03 05:06:38;;;;;;;0.60;0.60;;;10.30;99.90;;;;;;5117263;28;20040;-70
2023/06/03 05:09:05;;;;;;;0.50;0.50;;;10.40;99.90;;;;;;5117316;28;20106;-70
2023/06/03 05:11:30;;;;;;;0.50;0.50;;;10.40;99.90;;;;;;5116877;28;20129;-69
2023/06/03 05:13:56;;;;;;;0.50;0.50;;;10.50;99.90;;;;;;5116609;28;20119;-69
2023/06/03 05:16:22;;;;;;;0.50;0.50;;;10.50;99.90;;;;;;5116851;28;20042;-70
2023/06/03 05:18:50;;;;;;;0.50;0.50;;;10.60;99.90;;;;;;5116727;28;20035;-69
2023/06/03 05:21:19;;;;;;;0.50;0.50;;;10.70;99.90;;;;;;5116356;28;20047;-69
2023/06/03 05:23:48;;;;;;;0.40;0.40;;;10.90;99.90;;;;;;5116732;28;20534;-69
2023/06/03 05:26:13;;;;;;;0.50;0.50;;;11.20;99.90;;;;;;5116424;28;20081;-69
2023/06/03 05:28:42;;;;;;;0.50;0.50;;;11.50;99.90;;;;;;5115559;28;20031;-70
2023/06/03 05:31:10;;;;;;;0.40;0.40;;;11.80;99.90;;;;;;5116428;28;20047;-70
2023/06/03 05:33:36;;;;;;;0.50;0.50;;;12.20;99.90;;;;;;5116449;28;20043;-70
2023/06/03 05:36:02;;;;;;;0.43;0.43;;;12.50;99.90;;;;;;5116728;28;20384;-70
2023/06/03 05:38:30;;;;;;;0.40;0.40;;;12.80;99.90;;;;;;5116224;28;20471;-69
2023/06/03 05:40:55;;;;;;;0.40;0.40;;;13.20;99.90;;;;;;5116385;28;20040;-70
2023/06/03 05:43:23;;;;;;;0.40;0.40;;;13.50;99.90;;;;;;5116318;28;20082;-69
2023/06/03 05:45:49;;;;;;;0.40;0.40;;;13.80;99.90;;;;;;5116179;28;20100;-70
2023/06/03 05:48:15;;;;;;;0.40;0.40;;;14.20;99.90;;;;;;5116154;28;20165;-69
2023/06/03 05:50:49;;;;;;;0.35;0.35;;;14.50;99.90;;;;;;5116163;28;20476;-69
2023/06/03 05:53:15;;;;;;;0.98;0.93;;;14.70;99.90;;;;;;5116086;28;20415;-69
2023/06/03 05:55:42;;;;;;;0.47;0.47;;;14.80;99.90;;;;;;5115977;28;20177;-69
2023/06/03 05:58:10;;;;;;;0.50;0.50;;;15.00;99.90;;;;;;5116039;28;20047;-70
2023/06/03 06:00:35;;;;;;;0.40;0.40;;;15.20;99.40;;;;;;5115582;28;20387;-70
2023/06/03 06:03:01;;;;;;;0.50;0.50;;;15.20;99.70;;;;;;5115852;28;20043;-70
2023/06/03 06:05:26;;;;;;;0.40;0.40;;;15.40;98.10;;;;;;5116160;28;20092;-69
2023/06/03 06:07:52;;;;;;;0.50;0.50;;;15.60;98.70;;;;;;5115440;28;20046;-70
2023/06/03 06:10:18;;;;;;;0.50;0.50;;;15.70;97.40;;;;;;5115863;28;20071;-70
2023/06/03 06:12:43;;;;;;;0.60;0.60;;;15.90;98.30;;;;;;5115518;28;20360;-70
2023/06/03 06:15:09;;;;;;;0.60;0.60;;;15.90;98.00;;;;;;5115627;28;20470;-69
2023/06/03 06:17:35;;;;;;;0.80;0.80;;;15.90;97.90;;;;;;5115349;28;20044;-70
2023/06/03 06:20:02;;;;;;;0.50;0.50;;;16.10;98.10;;;;;;5115364;28;20084;-70
2023/06/03 06:22:28;;;;;;;0.60;0.60;;;16.10;96.70;;;;;;5115452;28;20040;-69
2023/06/03 06:24:54;;;;;;;0.50;0.50;;;16.00;96.20;;;;;;5115409;28;20088;-70
2023/06/03 06:27:19;;;;;;;0.60;0.60;;;16.20;96.30;;;;;;5115304;28;20039;-70
2023/06/03 06:29:45;;;;;;;0.50;0.50;;;16.40;96.50;;;;;;5115332;28;20497;-70
2023/06/03 06:32:21;;;;;;;0.50;0.50;;;16.70;96.50;;;;;;5115475;28;20065;-68
2023/06/03 06:34:47;;;;;;;0.43;0.43;;;16.50;95.90;;;;;;5115165;28;20032;-70
2023/06/03 06:37:14;;;;;;;0.40;0.40;;;16.50;96.30;;;;;;5115188;28;20031;-70
2023/06/03 06:39:52;;;;;;;0.77;0.77;;;16.60;96.40;;;;;;5115170;28;20050;-71
2023/06/03 06:42:33;;;;;;;0.40;0.40;;;16.70;96.60;;;;;;5115067;28;20088;-69
2023/06/03 06:45:14;;;;;;;0.40;0.40;;;16.80;95.90;;;;;;5115302;28;20051;-70
2023/06/03 06:47:40;;;;;;;0.40;0.40;;;16.80;94.60;;;;;;5114599;28;20173;-70
2023/06/03 06:50:15;;;;;;;0.40;0.40;;;16.90;95.60;;;;;;5115130;28;20379;-69
2023/06/03 06:52:41;;;;;;;0.40;0.40;;;17.00;96.00;;;;;;5114828;28;20043;-70
2023/06/03 06:55:22;;;;;;;0.40;0.40;;;17.10;95.60;;;;;;5114840;28;20448;-70
2023/06/03 06:57:47;;;;;;;0.38;0.38;;;17.20;95.30;;;;;;5115177;28;20055;-69
2023/06/03 07:00:13;;;;;;;2.10;2.00;;;17.20;94.40;;;;;;5114741;28;20046;-70
2023/06/03 07:02:40;;;;;;;0.40;0.40;;;17.30;95.20;;;;;;5114521;28;20531;-71
2023/06/03 07:05:06;;;;;;;0.40;0.40;;;17.30;94.20;;;;;;5114703;28;20391;-70
2023/06/03 07:07:33;;;;;;;0.40;0.40;;;17.30;94.80;;;;;;5114749;28;20032;-70
2023/06/03 07:09:59;;;;;;;0.30;0.30;;;17.40;94.10;;;;;;5114582;28;20093;-70
2023/06/03 07:12:25;;;;;;;0.30;0.30;;;17.70;93.80;;;;;;5114653;28;20032;-70
2023/06/03 07:14:53;;;;;;;0.40;0.40;;;17.70;93.80;;;;;;5114562;28;20043;-69
2023/06/03 07:17:19;;;;;;;0.30;0.30;;;17.70;94.40;;;;;;5114665;28;20047;-71
2023/06/03 07:19:45;;;;;;;0.37;0.37;;;17.60;92.90;;;;;;5114453;28;20118;-70
2023/06/03 07:22:11;;;;;;;0.30;0.30;;;17.60;94.30;;;;;;5114137;28;20067;-69
2023/06/03 07:24:37;;;;;;;0.30;0.30;;;17.60;93.70;;;;;;5114305;28;20164;-70
2023/06/03 07:27:07;;;;;;;0.30;0.30;;;17.70;94.00;;;;;;5114211;28;20039;-70
2023/06/03 07:29:38;;;;;;;0.30;0.30;;;17.70;93.20;;;;;;5114265;28;20070;-70
2023/06/03 07:32:07;;;;;;;0.40;0.40;;;17.80;93.60;;;;;;5114298;28;20126;-70
2023/06/03 07:34:34;;;;;;;0.30;0.30;;;17.80;93.20;;;;;;5114151;28;20043;-69
2023/06/03 07:37:02;;;;;;;0.30;0.30;;;17.80;93.30;;;;;;5114175;28;20097;-69
2023/06/03 07:39:27;;;;;;;0.30;0.30;;;17.60;93.10;;;;;;5114095;28;20043;-70
2023/06/03 07:41:54;;;;;;;0.30;0.30;;;17.80;93.30;;;;;;5114142;28;20036;-70
2023/06/03 07:44:44;;;;;;;0.30;0.30;;;18.10;93.00;;;;;;5113124;28;20502;-70
2023/06/03 07:47:15;;;;;;;0.30;0.30;;;18.30;92.80;;;;;;5113892;28;20039;-71
2023/06/03 07:49:44;;;;;;;0.50;0.50;;;18.40;91.90;;;;;;5114014;28;20031;-70
2023/06/03 07:52:18;;;;;;;0.30;0.30;;;18.40;91.80;;;;;;5113932;28;20043;-70
2023/06/03 07:54:44;;;;;;;0.30;0.30;;;18.40;91.80;;;;;;5114276;28;20360;-71
2023/06/03 07:57:14;;;;;;;0.30;0.30;;;18.40;91.30;;;;;;5114023;28;20045;-70
2023/06/03 07:59:51;;;;;;;0.30;0.30;;;18.50;92.00;;;;;;5117363;28;20066;-70
2023/06/03 08:02:17;;;;;;;0.30;0.30;;;18.50;91.20;;;;;;5118109;28;20071;-69
2023/06/03 08:04:43;;;;;;;0.30;0.30;;;18.40;90.10;;;;;;5118213;28;20468;-69
2023/06/03 08:07:09;;;;;;;0.30;0.30;;;18.50;91.70;;;;;;5118058;28;20128;-70
2023/06/03 08:09:36;;;;;;;0.30;0.30;;;18.60;91.00;;;;;;5117987;28;20072;-70
2023/06/03 08:12:03;;;;;;;;;;;18.50;89.50;;;;;;5118389;28;20055;-70
2023/06/03 08:14:32;;;;;;;0.30;0.30;;;18.50;90.00;;;;;;5117932;28;20338;-70
2023/06/03 08:17:13;;;;;;;0.30;0.30;;;18.70;90.10;;;;;;5118443;28;20039;-70
2023/06/03 08:19:42;;;;;;;0.30;0.30;;;18.90;90.90;;;;;;5117098;28;20048;-70
2023/06/03 08:22:39;;;;;;;0.52;0.52;;;19.10;90.30;;;;;;5117729;28;20039;-69
2023/06/03 08:25:05;;;;;;;0.40;0.40;;;19.20;88.10;;;;;;5117822;28;20050;-70
2023/06/03 08:27:31;;;;;;;0.30;0.30;;;19.20;88.70;;;;;;5118016;28;20036;-70
2023/06/03 08:29:58;;;;;;;0.30;0.30;;;19.00;87.60;;;;;;5117748;28;20028;-69
2023/06/03 08:32:24;;;;;;;0.30;0.30;;;18.90;87.90;;;;;;5117612;28;20091;-69
2023/06/03 08:34:50;;;;;;;0.30;0.30;;;18.70;87.90;;;;;;5117441;28;20047;-70
2023/06/03 08:37:15;;;;;;;0.30;0.30;;;18.60;90.00;;;;;;5117155;28;20523;-70
2023/06/03 08:39:41;;;;;;;0.30;0.30;;;18.60;90.00;;;;;;5116098;28;20058;-70
2023/06/03 08:42:09;;;;;;;0.30;0.30;;;18.40;87.90;;;;;;5101096;28;20456;-71
2023/06/03 08:45:00;;;;;;;0.30;0.30;;;18.50;87.80;;;;;;5105820;28;20040;-70
2023/06/03 08:47:57;;;;;;;0.30;0.30;;;18.70;87.90;;;;;;5096744;28;20044;-71
2023/06/03 08:50:25;;;;;;;0.30;0.30;;;18.90;87.00;;;;;;5095677;28;20043;-71
2023/06/03 08:52:52;;;;;;;0.30;0.30;;;19.00;88.20;;;;;;5095071;28;20383;-71
2023/06/03 08:55:19;;;;;;;0.30;0.30;;;18.90;86.80;;;;;;5096310;28;20406;-72
2023/06/03 08:57:57;;;;;;;0.30;0.30;;;18.80;87.60;;;;;;5096335;28;20051;-72
2023/06/03 09:00:24;;;;;;;0.30;0.30;;;18.50;88.50;;;;;;5096023;28;20036;-72
2023/06/03 09:02:51;;;;;;;0.30;0.30;;;18.40;89.30;;;;;;5096076;28;20519;-72
2023/06/03 09:05:19;;;;;;;0.30;0.30;;;18.20;89.90;;;;;;5096075;28;20047;-72
2023/06/03 09:07:47;;;;;;;0.30;0.30;;;18.00;88.60;;;;;;5096420;28;20051;-73
2023/06/03 09:10:15;;;;;;;0.30;0.30;;;18.20;88.20;;;;;;5096160;28;20132;-71
2023/06/03 09:12:41;;;;;;;0.30;0.30;;;18.50;88.00;;;;;;5096413;28;20040;-71
2023/06/03 09:15:08;;;;;;;0.30;0.30;;;18.90;88.80;;;;;;5096200;28;20106;-72
2023/06/03 09:17:35;;;;;;;0.30;0.30;;;19.20;87.60;;;;;;5096713;28;20126;-72
2023/06/03 09:20:02;;;;;;;0.30;0.30;;;19.50;86.60;;;;;;5096293;28;20040;-72
2023/06/03 09:22:28;;;;;;;0.30;0.30;;;19.70;88.20;;;;;;5096206;28;20135;-72
2023/06/03 09:24:54;;;;;;;0.30;0.30;;;20.00;87.10;;;;;;5096229;28;20139;-71
2023/06/03 09:27:22;;;;;;;0.30;0.30;;;20.20;85.40;;;;;;5095869;28;20039;-72
2023/06/03 09:29:47;;;;;;;0.28;0.28;;;20.30;84.00;;;;;;5096159;28;20059;-73
2023/06/03 09:32:13;;;;;;;0.30;0.30;;;20.30;85.90;;;;;;5096161;28;20039;-72
2023/06/03 09:34:39;;;;;;;0.30;0.30;;;20.50;85.10;;;;;;5096036;28;20089;-71
2023/06/03 09:37:08;;;;;;;0.30;0.30;;;20.50;85.40;;;;;;5095777;28;20361;-71
2023/06/03 09:39:36;;;;;;;0.20;0.20;;;20.70;85.50;;;;;;5095740;28;20369;-72
2023/06/03 09:42:02;;;;;;;0.30;0.30;;;20.90;84.30;;;;;;5095678;28;20044;-73
2023/06/03 09:44:48;;;;;;;0.30;0.30;;;20.80;84.90;;;;;;5095814;28;20122;-72
2023/06/03 09:47:14;;;;;;;0.30;0.30;;;20.60;84.30;;;;;;5095739;28;20043;-72
2023/06/03 09:49:59;;;;;;;0.30;0.30;;;20.80;83.90;;;;;;5095708;28;20035;-72
2023/06/03 09:52:32;;;;;;;0.30;0.30;;;20.70;82.10;;;;;;5095324;28;20372;-71
2023/06/03 09:55:06;;;;;;;0.40;0.40;;;20.90;81.60;;;;;;5095563;28;20075;-71
2023/06/03 09:57:32;;;;;;;0.40;0.40;;;21.30;83.50;;;;;;5096062;28;20040;-72
2023/06/03 10:00:07;;;;;;;0.30;0.30;;;21.40;84.10;;;;;;5095512;28;20079;-72
2023/06/03 10:02:35;;;;;;;0.30;0.30;;;21.50;82.40;;;;;;5095044;28;20056;-72
2023/06/03 10:05:00;;;;;;;0.30;0.30;;;21.20;80.90;;;;;;5095278;28;20048;-73
2023/06/03 10:07:26;;;;;;;0.30;0.30;;;21.00;81.00;;;;;;5095298;28;20043;-72
2023/06/03 10:10:03;;;;;;;0.30;0.30;;;21.00;82.80;;;;;;5095360;28;20031;-72
2023/06/03 10:12:32;;;;;;;0.30;0.30;;;21.00;83.70;;;;;;5095552;28;20046;-72
2023/06/03 10:15:01;;;;;;;0.30;0.30;;;21.00;82.10;;;;;;5095117;28;20521;-71
2023/06/03 10:17:27;;;;;;;0.30;0.30;;;20.90;81.60;;;;;;5095163;28;20051;-73
2023/06/03 10:19:53;;;;;;;0.43;0.43;;;20.90;81.60;;;;;;5095116;28;20101;-72
2023/06/03 10:22:19;;;;;;;0.30;0.30;;;21.00;80.50;;;;;;5094666;28;20071;-72
2023/06/03 10:24:47;;;;;;;0.30;0.30;;;20.90;81.30;;;;;;5095050;28;20525;-73
2023/06/03 10:27:15;;;;;;;0.30;0.30;;;21.10;80.70;;;;;;5094990;28;20078;-72
2023/06/03 10:29:40;;;;;;;0.30;0.30;;;21.10;81.00;;;;;;5094873;28;20387;-72
2023/06/03 10:32:07;;;;;;;0.30;0.30;;;21.10;81.60;;;;;;5094868;28;20032;-71
2023/06/03 10:34:41;;;;;;;0.30;0.30;;;21.10;81.60;;;;;;5094905;28;20040;-72
2023/06/03 10:37:07;;;;;;;0.20;0.20;;;21.20;81.20;;;;;;5093775;28;20078;-73
2023/06/03 10:39:33;;;;;;;0.20;0.20;;;21.10;81.70;;;;;;5094737;28;20096;-72
2023/06/03 10:42:05;;;;;;;0.40;0.40;;;21.10;81.20;;;;;;5094450;28;20040;-72
2023/06/03 10:44:32;;;;;;;0.30;0.30;;;21.00;80.80;;;;;;5094715;28;20119;-72
2023/06/03 10:47:26;;;;;;;0.20;0.20;;;21.20;80.70;;;;;;5094459;28;20438;-72
2023/06/03 10:50:11;;;;;;;0.30;0.30;;;21.30;80.70;;;;;;5094567;28;20032;-72
2023/06/03 10:53:09;;;;;;;0.30;0.30;;;21.40;81.60;;;;;;5094716;28;20048;-71
2023/06/03 10:56:05;;;;;;;0.30;0.30;;;21.50;80.70;;;;;;5049718;28;20546;-73
2023/06/03 10:58:31;;;;;;;0.38;0.38;;;21.60;79.40;;;;;;5094472;28;20036;-73
2023/06/03 11:01:01;;;;;;;0.30;0.30;;;21.60;81.40;;;;;;5094471;28;20075;-72
2023/06/03 11:03:31;;;;;;;0.30;0.30;;;21.70;80.20;;;;;;5094737;28;20043;-73
2023/06/03 11:06:18;;;;;;;0.40;0.40;;;21.70;80.60;;;;;;5094467;28;20048;-72
2023/06/03 11:09:05;;;;;;;0.30;0.30;;;21.80;79.70;;;;;;5094216;28;20050;-73
2023/06/03 11:11:41;;;;;;;;;;;21.80;78.60;;;;;;5093435;28;20523;-72
2023/06/03 11:14:37;;;;;;;0.25;0.25;;;21.80;81.10;;;;;;5094074;28;19924;-72
2023/06/03 11:17:03;;;;;;;0.20;0.20;;;22.00;79.60;;;;;;5094168;28;20134;-71
2023/06/03 11:19:46;;;;;;;0.20;0.20;;;22.10;80.00;;;;;;5094205;28;20547;-72
2023/06/03 11:22:27;;;;;;;0.30;0.30;;;22.10;79.50;;;;;;5093962;28;20040;-71
2023/06/03 11:24:53;;;;;;;0.30;0.30;;;22.30;79.70;;;;;;5094306;28;20046;-72
2023/06/03 11:27:19;;;;;;;0.28;0.28;;;22.40;80.80;;;;;;5093897;28;20050;-72
2023/06/03 11:29:56;;;;;;;0.20;0.20;;;22.60;81.70;;;;;;5093940;28;20056;-73
2023/06/03 11:32:32;;;;;;;0.20;0.20;;;22.60;78.40;;;;;;5094002;28;20110;-72
2023/06/03 11:35:03;;;;;;;0.30;0.30;;;22.60;81.50;;;;;;5093893;28;20122;-72
2023/06/03 11:37:41;;;;;;;0.20;0.20;;;22.40;78.40;;;;;;5093802;28;20047;-73
2023/06/03 11:40:18;;;;;;;0.20;0.20;;;22.50;78.10;;;;;;5094023;28;20046;-72
2023/06/03 11:42:47;;;;;;;0.20;0.20;;;22.50;79.50;;;;;;5093947;28;20087;-72
2023/06/03 11:45:24;;;;;;;0.20;0.20;;;22.60;80.00;;;;;;5093538;28;20465;-69
2023/06/03 11:47:53;;;;;;;;;;;22.70;79.50;;;;;;5094553;28;20039;-69
2023/06/03 11:50:20;;;;;;;0.20;0.20;;;22.80;77.90;;;;;;5093581;28;19916;-72
2023/06/03 11:52:46;;;;;;;0.20;0.20;;;22.80;78.50;;;;;;5094086;28;20055;-70
2023/06/03 11:55:31;;;;;;;0.20;0.20;;;22.80;78.50;;;;;;5093639;28;20123;-71
2023/06/03 11:58:11;;;;;;;0.20;0.20;;;22.80;77.40;;;;;;5093523;28;20040;-71
2023/06/03 12:00:37;;;;;;;0.20;0.20;;;22.80;78.60;;;;;;5094384;28;20051;-72
2023/06/03 12:03:03;;;;;;;0.30;0.30;;;22.90;78.60;;;;;;5093484;28;20499;-70
2023/06/03 12:05:29;;;;;;;0.20;0.20;;;23.00;79.30;;;;;;5093513;28;20115;-71
2023/06/03 12:07:59;;;;;;;0.20;0.20;;;23.20;79.60;;;;;;5093531;28;20036;-71
2023/06/03 12:10:26;;;;;;;0.30;0.30;;;23.20;80.50;;;;;;5093460;28;20048;-71
2023/06/03 12:12:56;;;;;;;0.30;0.30;;;23.30;78.30;;;;;;5093235;28;20533;-71
2023/06/03 12:15:22;;;;;;;0.30;0.30;;;23.20;78.50;;;;;;5093384;28;20036;-71
2023/06/03 12:17:48;;;;;;;0.20;0.20;;;23.20;77.00;;;;;;5093451;28;20040;-71
2023/06/03 12:20:23;;;;;;;0.22;0.22;;;23.20;77.30;;;;;;5093199;28;20032;-72
2023/06/03 12:22:49;;;;;;;0.30;0.30;;;23.20;77.30;;;;;;5093271;28;20056;-71
2023/06/03 12:25:20;;;;;;;0.30;0.30;;;23.40;77.70;;;;;;5092153;28;20046;-71
2023/06/03 12:27:47;;;;;;;0.47;0.47;;;23.40;76.80;;;;;;5093172;28;20054;-71
2023/06/03 12:30:27;;;;;;;0.20;0.20;;;23.60;77.70;;;;;;5093339;28;20071;-72
2023/06/03 12:32:57;;;;;;;0.70;0.40;;;23.70;77.50;;;;;;5093295;28;20036;-71
2023/06/03 12:35:26;;;;;;;0.20;0.20;;;23.70;76.10;;;;;;5093260;28;20372;-72
2023/06/03 12:38:05;;;;;;;0.20;0.20;;;23.70;75.30;;;;;;5093031;28;20044;-71
2023/06/03 12:40:31;;;;;;;0.20;0.20;;;23.60;76.60;;;;;;5093235;28;20119;-72
2023/06/03 12:42:58;;;;;;;0.37;0.37;;;23.70;75.50;;;;;;5093108;28;20086;-70
2023/06/03 12:45:27;;;;;;;;;;;23.70;74.50;;;;;;5096308;28;20547;-72
2023/06/03 12:47:53;;;;;;;0.30;0.30;;;23.80;74.50;;;;;;5096773;28;20244;-71
2023/06/03 12:50:20;;;;;;;0.30;0.30;;;23.80;74.20;;;;;;5096938;28;20110;-71
2023/06/03 12:52:47;;;;;;;0.20;0.20;;;23.80;74.80;;;;;;5096934;28;20032;-72
2023/06/03 12:55:15;;;;;;;0.30;0.30;;;23.60;73.00;;;;;;5096696;28;20044;-72
2023/06/03 12:57:42;;;;;;;0.40;0.40;;;23.60;73.80;;;;;;5096750;28;20050;-71
2023/06/03 13:00:18;;;;;;;0.20;0.20;;;23.60;74.10;;;;;;5096768;28;20085;-72